createdAt,value
2023-05-14T00:01:19.617Z,100941.41
2023-05-14T00:03:46.145Z,100939.15
2023-05-14T00:06:12.818Z,100943.56
2023-05-14T00:08:39.340Z,100948.80
2023-05-14T00:11:05.897Z,100947.68
2023-05-14T00:13:32.471Z,100950.44
2023-05-14T00:15:58.966Z,100954.29
2023-05-14T00:18:25.626Z,100952.80
2023-05-14T00:20:54.761Z,100955.17
2023-05-14T00:23:22.583Z,100953.48
2023-05-14T00:25:49.632Z,100953.77
2023-05-14T00:28:16.796Z,100957.39
2023-05-14T00:30:44.683Z,100960.35
2023-05-14T00:33:11.382Z,100958.01
2023-05-14T00:35:38.001Z,100958.01
2023-05-14T00:38:05.011Z,100957.14
2023-05-14T00:40:31.604Z,100952.64
2023-05-14T00:42:58.133Z,100951.50
2023-05-14T00:45:25.626Z,100951.38
2023-05-14T00:47:53.474Z,100948.53
2023-05-14T00:50:21.127Z,100948.75
2023-05-14T00:52:47.979Z,100949.00
2023-05-14T00:55:16.978Z,100950.08
2023-05-14T00:57:44.262Z,100949.58
2023-05-14T01:00:11.339Z,100948.73
2023-05-14T01:02:38.103Z,100952.70
2023-05-14T01:05:05.690Z,100951.17
2023-05-14T01:07:55.263Z,100950.59
2023-05-14T01:10:39.080Z,100952.01
2023-05-14T01:13:21.848Z,100947.83
2023-05-14T01:15:49.237Z,100953.27
2023-05-14T01:18:18.288Z,100952.77
2023-05-14T01:20:45.960Z,100949.91
2023-05-14T01:23:12.457Z,100950.20
2023-05-14T01:25:38.981Z,100949.08
2023-05-14T01:28:15.393Z,100946.11
2023-05-14T01:30:57.343Z,100944.02
2023-05-14T01:33:27.644Z,100945.34
2023-05-14T01:35:54.970Z,100945.15
2023-05-14T01:38:23.338Z,100943.13
2023-05-14T01:40:50.822Z,100941.70
2023-05-14T01:43:18.750Z,100935.98
2023-05-14T01:45:45.534Z,100933.10
2023-05-14T01:48:12.565Z,100929.52
2023-05-14T01:50:39.156Z,100926.91
2023-05-14T01:53:05.789Z,100927.50
2023-05-14T01:55:32.322Z,100925.68
2023-05-14T01:57:59.007Z,100924.45
2023-05-14T02:00:26.268Z,100921.23
2023-05-14T02:02:53.163Z,100916.83
2023-05-14T02:05:19.817Z,100916.73
2023-05-14T02:07:46.414Z,100915.30
2023-05-14T02:10:13.316Z,100918.64
2023-05-14T02:12:39.925Z,100915.30
2023-05-14T02:15:08.917Z,100921.42
2023-05-14T02:17:39.190Z,100919.84
2023-05-14T02:20:06.411Z,100918.62
2023-05-14T02:22:33.061Z,100919.01
2023-05-14T02:24:59.562Z,100920.79
2023-05-14T02:27:26.135Z,100920.02
2023-05-14T02:29:52.852Z,100919.86
2023-05-14T02:32:19.497Z,100917.95
2023-05-14T02:34:46.076Z,100917.71
2023-05-14T02:37:12.649Z,100913.95
2023-05-14T02:39:39.140Z,100913.16
2023-05-14T02:42:06.988Z,100913.41
2023-05-14T02:44:33.688Z,100914.68
2023-05-14T02:47:00.252Z,100913.61
2023-05-14T02:49:26.783Z,100919.28
2023-05-14T02:51:54.350Z,100919.80
2023-05-14T02:54:20.927Z,100918.69
2023-05-14T02:56:47.574Z,100916.51
2023-05-14T02:59:14.369Z,100918.31
2023-05-14T03:01:41.425Z,100914.93
2023-05-14T03:04:08.645Z,100917.79
2023-05-14T03:06:35.264Z,100919.16
2023-05-14T03:09:01.810Z,100924.13
2023-05-14T03:11:28.421Z,100920.33
2023-05-14T03:13:54.950Z,100918.41
2023-05-14T03:16:21.497Z,100917.75
2023-05-14T03:18:48.142Z,100917.47
2023-05-14T03:21:14.803Z,100918.98
2023-05-14T03:23:41.517Z,100917.70
2023-05-14T03:26:13.955Z,100916.86
2023-05-14T03:28:40.838Z,100913.96
2023-05-14T03:31:07.466Z,100912.75
2023-05-14T03:33:34.074Z,100908.86
2023-05-14T03:36:00.630Z,100911.76
2023-05-14T03:38:27.205Z,100910.17
2023-05-14T03:40:53.712Z,100904.08
2023-05-14T03:43:20.356Z,100902.65
2023-05-14T03:45:52.257Z,100903.61
2023-05-14T03:48:19.772Z,100901.89
2023-05-14T03:50:46.908Z,100904.02
2023-05-14T03:53:13.524Z,100901.83
2023-05-14T03:55:40.138Z,100899.48
2023-05-14T03:58:14.360Z,100899.88
2023-05-14T04:00:44.109Z,100899.30
2023-05-14T04:03:11.263Z,100899.81
2023-05-14T04:05:37.900Z,100902.91
2023-05-14T04:08:04.587Z,100902.73
2023-05-14T04:10:32.022Z,100901.27
2023-05-14T04:12:59.505Z,100903.13
2023-05-14T04:15:31.026Z,100909.32
2023-05-14T04:17:57.709Z,100910.98
2023-05-14T04:20:24.475Z,100909.61
2023-05-14T04:22:51.171Z,100909.15
2023-05-14T04:25:18.508Z,100906.94
2023-05-14T04:27:45.304Z,100906.30
2023-05-14T04:30:12.486Z,100908.74
2023-05-14T04:32:39.230Z,100905.86
2023-05-14T04:35:06.642Z,100904.44
2023-05-14T04:37:33.365Z,100905.62
2023-05-14T04:40:00.910Z,100906.88
2023-05-14T04:42:27.545Z,100903.53
2023-05-14T04:44:54.033Z,100905.55
2023-05-14T04:47:21.125Z,100905.13
2023-05-14T04:49:47.841Z,100900.25
2023-05-14T04:52:14.365Z,100901.94
2023-05-14T04:54:41.060Z,100904.27
2023-05-14T04:57:07.598Z,100899.23
2023-05-14T04:59:34.185Z,100898.35
2023-05-14T05:02:00.699Z,100898.33
2023-05-14T05:04:27.794Z,100901.77
2023-05-14T05:06:54.305Z,100903.39
2023-05-14T05:09:21.285Z,100900.66
2023-05-14T05:11:47.816Z,100900.83
2023-05-14T05:14:14.367Z,100899.10
2023-05-14T05:16:40.972Z,100902.98
2023-05-14T05:19:07.588Z,100903.08
2023-05-14T05:21:34.799Z,100898.84
2023-05-14T05:24:01.275Z,100899.29
2023-05-14T05:26:28.091Z,100900.20
2023-05-14T05:28:54.656Z,100902.02
2023-05-14T05:31:21.268Z,100903.08
2023-05-14T05:33:48.100Z,100899.30
2023-05-14T05:36:14.670Z,100899.80
2023-05-14T05:38:41.357Z,100898.21
2023-05-14T05:41:08.073Z,100896.59
2023-05-14T05:43:34.713Z,100894.52
2023-05-14T05:46:01.617Z,100891.06
2023-05-14T05:48:28.321Z,100894.23
2023-05-14T05:50:55.126Z,100893.84
2023-05-14T05:53:21.766Z,100892.33
2023-05-14T05:55:48.371Z,100895.45
2023-05-14T05:58:17.155Z,100895.91
2023-05-14T06:00:44.009Z,100894.35
2023-05-14T06:03:11.303Z,100896.63
2023-05-14T06:05:38.060Z,100896.05
2023-05-14T06:08:05.101Z,100896.23
2023-05-14T06:10:31.980Z,100894.42
2023-05-14T06:12:58.531Z,100895.73
2023-05-14T06:15:25.129Z,100894.25
2023-05-14T06:17:51.886Z,100892.75
2023-05-14T06:20:19.086Z,100892.23
2023-05-14T06:22:45.718Z,100889.77
2023-05-14T06:25:12.365Z,100890.45
2023-05-14T06:27:38.950Z,100894.40
2023-05-14T06:30:07.015Z,100893.33
2023-05-14T06:32:33.603Z,100891.75
2023-05-14T06:35:00.188Z,100893.23
2023-05-14T06:37:26.792Z,100895.42
2023-05-14T06:39:54.750Z,100896.33
2023-05-14T06:42:23.031Z,100889.48
2023-05-14T06:44:49.568Z,100890.54
2023-05-14T06:47:16.205Z,100890.80
2023-05-14T06:49:42.801Z,100889.57
2023-05-14T06:52:09.336Z,100884.95
2023-05-14T06:54:36.020Z,100881.70
2023-05-14T06:57:02.618Z,100883.72
2023-05-14T06:59:29.309Z,100884.58
2023-05-14T07:01:55.938Z,100885.45
2023-05-14T07:04:22.636Z,100885.67
2023-05-14T07:06:49.365Z,100883.46
2023-05-14T07:09:16.528Z,100881.56
2023-05-14T07:11:43.475Z,100883.45
2023-05-14T07:14:10.057Z,100877.25
2023-05-14T07:16:37.109Z,100876.94
2023-05-14T07:19:03.741Z,100873.05
2023-05-14T07:21:30.355Z,100873.73
2023-05-14T07:23:56.938Z,100874.21
2023-05-14T07:26:24.579Z,100874.60
2023-05-14T07:28:51.297Z,100872.98
2023-05-14T07:31:17.934Z,100870.94
2023-05-14T07:33:47.507Z,100868.66
2023-05-14T07:36:14.085Z,100860.64
2023-05-14T07:38:40.774Z,100861.29
2023-05-14T07:41:07.891Z,100859.67
2023-05-14T07:43:34.651Z,100855.63
2023-05-14T07:46:01.220Z,100852.95
2023-05-14T07:48:27.827Z,100855.24
2023-05-14T07:50:54.617Z,100854.47
2023-05-14T07:53:22.006Z,100849.15
2023-05-14T07:55:49.285Z,100850.12
2023-05-14T07:58:16.752Z,100847.17
2023-05-14T08:00:43.538Z,100844.61
2023-05-14T08:03:10.435Z,100844.13
2023-05-14T08:05:39.621Z,100840.58
2023-05-14T08:08:06.612Z,100838.17
2023-05-14T08:10:33.217Z,100836.88
2023-05-14T08:12:59.785Z,100833.42
2023-05-14T08:15:27.831Z,100833.96
2023-05-14T08:17:54.952Z,100835.09
2023-05-14T08:20:22.218Z,100834.85
2023-05-14T08:22:48.964Z,100834.29
2023-05-14T08:25:15.665Z,100826.84
2023-05-14T08:27:42.238Z,100825.73
2023-05-14T08:30:09.209Z,100828.25
2023-05-14T08:32:35.857Z,100822.95
2023-05-14T08:35:02.502Z,100822.97
2023-05-14T08:37:29.084Z,100817.79
2023-05-14T08:39:56.244Z,100820.53
2023-05-14T08:42:24.724Z,100818.09
2023-05-14T08:45:00.908Z,100816.46
2023-05-14T08:47:30.237Z,100812.77
2023-05-14T08:50:08.156Z,100809.66
2023-05-14T08:52:35.042Z,100814.63
2023-05-14T08:55:05.592Z,100814.83
2023-05-14T08:57:33.316Z,100809.88
2023-05-14T09:00:00.423Z,100813.00
2023-05-14T09:02:31.550Z,100814.46
2023-05-14T09:05:00.101Z,100812.36
2023-05-14T09:07:27.544Z,100808.70
2023-05-14T09:09:54.988Z,100805.59
2023-05-14T09:12:22.135Z,100802.38
2023-05-14T09:14:49.788Z,100798.92
2023-05-14T09:17:17.432Z,100800.89
2023-05-14T09:19:47.352Z,100800.55
2023-05-14T09:22:15.975Z,100792.75
2023-05-14T09:24:43.178Z,100787.97
2023-05-14T09:27:15.246Z,100787.86
2023-05-14T09:29:41.851Z,100783.52
2023-05-14T09:32:10.274Z,100786.52
2023-05-14T09:34:39.699Z,100790.27
2023-05-14T09:37:08.016Z,100789.12
2023-05-14T09:39:36.502Z,100785.20
2023-05-14T09:42:03.784Z,100783.62
2023-05-14T09:44:30.726Z,100778.39
2023-05-14T09:46:57.620Z,100781.09
2023-05-14T09:49:24.215Z,100784.89
2023-05-14T09:51:51.583Z,100780.98
2023-05-14T09:54:18.252Z,100780.95
2023-05-14T09:56:44.969Z,100767.16
2023-05-14T09:59:11.662Z,100775.28
2023-05-14T10:01:38.621Z,100774.08
2023-05-14T10:04:08.188Z,100773.45
2023-05-14T10:06:39.325Z,100762.76
2023-05-14T10:09:12.372Z,100758.20
2023-05-14T10:11:43.623Z,100755.74
2023-05-14T10:14:20.714Z,100758.35
2023-05-14T10:16:51.087Z,100754.64
2023-05-14T10:19:20.805Z,100756.82
2023-05-14T10:21:59.778Z,100760.96
2023-05-14T10:24:27.482Z,100758.61
2023-05-14T10:26:54.321Z,100750.66
2023-05-14T10:29:31.484Z,100744.23
2023-05-14T10:31:58.007Z,100744.05
2023-05-14T10:34:34.571Z,100738.59
2023-05-14T10:37:02.369Z,100741.34
2023-05-14T10:39:49.634Z,100747.55
2023-05-14T10:42:21.719Z,100746.95
2023-05-14T10:45:01.531Z,100749.58
2023-05-14T10:47:29.521Z,100735.94
2023-05-14T10:50:03.788Z,100722.42
2023-05-14T10:52:31.064Z,100727.76
2023-05-14T10:55:03.691Z,100722.94
2023-05-14T10:57:32.309Z,100715.94
2023-05-14T11:00:03.174Z,100716.95
2023-05-14T11:02:41.253Z,100725.41
2023-05-14T11:05:11.034Z,100721.26
2023-05-14T11:07:38.517Z,100721.58
2023-05-14T11:10:10.239Z,100714.38
2023-05-14T11:12:40.941Z,100703.05
2023-05-14T11:15:13.296Z,100700.48
2023-05-14T11:17:41.650Z,100699.21
2023-05-14T11:20:09.610Z,100691.59
2023-05-14T11:22:37.436Z,100689.75
2023-05-14T11:25:04.861Z,100679.25
2023-05-14T11:27:33.591Z,100674.14
2023-05-14T11:30:01.051Z,100671.36
2023-05-14T11:32:27.858Z,100672.96
2023-05-14T11:34:54.587Z,100670.84
2023-05-14T11:37:24.136Z,100668.17
2023-05-14T11:39:52.852Z,100659.48
2023-05-14T11:42:20.855Z,100649.98
2023-05-14T11:44:49.080Z,100646.70
2023-05-14T11:47:18.262Z,100646.22
2023-05-14T11:49:45.885Z,100642.27
2023-05-14T11:52:14.859Z,100637.34
2023-05-14T11:54:43.039Z,100639.80
2023-05-14T11:57:12.596Z,100631.13
2023-05-14T11:59:39.888Z,100631.90
2023-05-14T12:02:10.599Z,100617.60
2023-05-14T12:04:37.391Z,100611.94
2023-05-14T12:07:12.877Z,100602.65
2023-05-14T12:09:44.207Z,100593.60
2023-05-14T12:12:12.874Z,100589.07
2023-05-14T12:14:45.410Z,100590.95
2023-05-14T12:17:14.969Z,100588.52
2023-05-14T12:19:42.546Z,100587.02
2023-05-14T12:22:11.005Z,100578.14
2023-05-14T12:24:39.179Z,100567.42
2023-05-14T12:27:07.402Z,100572.40
2023-05-14T12:29:41.334Z,100569.82
2023-05-14T12:32:09.321Z,100564.00
2023-05-14T12:34:37.888Z,100561.01
2023-05-14T12:37:05.583Z,100551.45
2023-05-14T12:39:35.660Z,100545.91
2023-05-14T12:42:02.427Z,100546.55
2023-05-14T12:44:29.114Z,100550.50
2023-05-14T12:46:56.045Z,100548.24
2023-05-14T12:49:22.750Z,100544.25
2023-05-14T12:51:51.209Z,100540.25
2023-05-14T12:54:24.352Z,100540.52
2023-05-14T12:56:50.967Z,100540.05
2023-05-14T12:59:17.612Z,100543.35
2023-05-14T13:01:44.273Z,100541.43
2023-05-14T13:04:14.416Z,100535.95
2023-05-14T13:06:41.346Z,100528.33
2023-05-14T13:09:08.753Z,100533.36
2023-05-14T13:11:35.712Z,100519.83
2023-05-14T13:14:02.568Z,100516.52
2023-05-14T13:16:30.122Z,100521.20
2023-05-14T13:18:56.812Z,100519.54
2023-05-14T13:21:23.378Z,100519.42
2023-05-14T13:23:49.923Z,100519.45
2023-05-14T13:26:16.491Z,100513.17
2023-05-14T13:28:43.328Z,100510.48
2023-05-14T13:31:11.930Z,100510.81
2023-05-14T13:33:40.883Z,100505.39
2023-05-14T13:36:08.438Z,100498.55
2023-05-14T13:38:35.418Z,100513.75
2023-05-14T13:41:02.721Z,100513.85
2023-05-14T13:43:33.921Z,100511.52
2023-05-14T13:46:01.562Z,100500.83
2023-05-14T13:48:28.481Z,100493.13
2023-05-14T13:50:55.163Z,100495.58
2023-05-14T13:53:23.117Z,100494.95
2023-05-14T13:55:50.410Z,100491.02
2023-05-14T13:58:17.227Z,100492.91
2023-05-14T14:00:43.907Z,100493.07
2023-05-14T14:03:10.715Z,100490.52
2023-05-14T14:05:37.701Z,100484.47
2023-05-14T14:08:17.769Z,100482.21
2023-05-14T14:10:49.834Z,100478.79
2023-05-14T14:13:16.447Z,100470.68
2023-05-14T14:15:43.691Z,100465.13
2023-05-14T14:18:10.469Z,100458.34
2023-05-14T14:20:37.191Z,100445.19
2023-05-14T14:23:03.927Z,100454.63
2023-05-14T14:25:30.630Z,100455.69
2023-05-14T14:27:57.354Z,100458.60
2023-05-14T14:30:24.052Z,100453.98
2023-05-14T14:32:51.190Z,100450.93
2023-05-14T14:35:19.381Z,100445.32
2023-05-14T14:37:49.347Z,100435.34
2023-05-14T14:40:17.172Z,100435.33
2023-05-14T14:42:44.378Z,100430.08
2023-05-14T14:45:12.119Z,100434.79
2023-05-14T14:47:38.976Z,100432.20
2023-05-14T14:50:06.486Z,100413.30
2023-05-14T14:52:33.207Z,100420.45
2023-05-14T14:54:59.816Z,100413.95
2023-05-14T14:57:26.879Z,100414.85
2023-05-14T14:59:53.468Z,100411.48
2023-05-14T15:02:20.264Z,100408.97
2023-05-14T15:04:46.898Z,100406.20
2023-05-14T15:07:15.937Z,100407.32
2023-05-14T15:09:43.357Z,100407.67
2023-05-14T15:12:11.185Z,100403.06
2023-05-14T15:14:37.831Z,100406.64
2023-05-14T15:17:04.619Z,100397.75
2023-05-14T15:19:32.282Z,100398.81
2023-05-14T15:21:58.861Z,100397.35
2023-05-14T15:24:26.174Z,100399.48
2023-05-14T15:26:53.661Z,100395.48
2023-05-14T15:29:20.530Z,100397.43
2023-05-14T15:31:47.271Z,100402.32
2023-05-14T15:34:14.000Z,100401.45
2023-05-14T15:36:40.812Z,100393.82
2023-05-14T15:39:10.298Z,100391.69
2023-05-14T15:41:38.124Z,100391.23
2023-05-14T15:44:05.024Z,100389.73
2023-05-14T15:46:32.193Z,100384.95
2023-05-14T15:48:58.769Z,100380.73
2023-05-14T15:51:25.477Z,100371.52
2023-05-14T15:53:54.096Z,100370.71
2023-05-14T15:56:23.794Z,100373.04
2023-05-14T15:58:50.536Z,100375.03
2023-05-14T16:01:19.371Z,100375.51
2023-05-14T16:03:46.159Z,100380.23
2023-05-14T16:06:13.048Z,100377.50
2023-05-14T16:08:39.698Z,100369.60
2023-05-14T16:11:07.585Z,100362.06
2023-05-14T16:13:37.597Z,100358.96
2023-05-14T16:16:04.398Z,100354.83
2023-05-14T16:18:31.112Z,100356.60
2023-05-14T16:20:57.815Z,100358.55
2023-05-14T16:23:24.367Z,100355.80
2023-05-14T16:25:51.079Z,100358.23
2023-05-14T16:28:17.672Z,100352.14
2023-05-14T16:30:47.259Z,100353.98
2023-05-14T16:33:13.904Z,100353.83
2023-05-14T16:35:40.504Z,100356.23
2023-05-14T16:38:07.118Z,100347.73
2023-05-14T16:40:33.677Z,100336.80
2023-05-14T16:43:00.376Z,100335.98
2023-05-14T16:45:27.198Z,100332.96
2023-05-14T16:47:54.153Z,100332.32
2023-05-14T16:50:20.967Z,100327.90
2023-05-14T16:52:47.595Z,100324.98
2023-05-14T16:55:14.296Z,100327.66
2023-05-14T16:57:41.039Z,100324.84
2023-05-14T17:00:09.882Z,100328.14
2023-05-14T17:02:36.978Z,100326.81
2023-05-14T17:05:04.164Z,100329.87
2023-05-14T17:07:31.439Z,100327.11
2023-05-14T17:09:58.610Z,100328.48
2023-05-14T17:12:26.098Z,100323.77
2023-05-14T17:14:53.071Z,100321.25
2023-05-14T17:17:19.600Z,100318.73
2023-05-14T17:19:46.261Z,100315.36
2023-05-14T17:22:15.807Z,100316.98
2023-05-14T17:24:42.397Z,100310.83
2023-05-14T17:27:09.129Z,100308.40
2023-05-14T17:29:35.721Z,100309.31
2023-05-14T17:32:03.645Z,100311.86
2023-05-14T17:34:30.495Z,100310.64
2023-05-14T17:36:57.384Z,100314.97
2023-05-14T17:39:24.019Z,100319.29
2023-05-14T17:41:50.607Z,100316.23
2023-05-14T17:44:17.192Z,100316.58
2023-05-14T17:46:44.667Z,100313.13
2023-05-14T17:49:11.991Z,100310.84
2023-05-14T17:51:38.539Z,100313.32
2023-05-14T17:54:05.200Z,100312.23
2023-05-14T17:56:31.864Z,100311.13
2023-05-14T17:58:58.537Z,100312.95
2023-05-14T18:01:25.133Z,100317.31
2023-05-14T18:03:52.269Z,100314.79
2023-05-14T18:06:18.899Z,100314.55
2023-05-14T18:08:45.479Z,100313.60
2023-05-14T18:11:12.349Z,100307.41
2023-05-14T18:13:38.949Z,100306.85
2023-05-14T18:16:05.736Z,100307.45
2023-05-14T18:18:32.378Z,100304.71
2023-05-14T18:20:59.133Z,100306.66
2023-05-14T18:23:25.742Z,100302.98
2023-05-14T18:25:52.381Z,100304.04
2023-05-14T18:28:21.339Z,100307.17
2023-05-14T18:30:49.337Z,100304.84
2023-05-14T18:33:16.202Z,100307.25
2023-05-14T18:35:43.716Z,100309.25
2023-05-14T18:38:11.855Z,100307.92
2023-05-14T18:40:38.533Z,100311.41
2023-05-14T18:43:05.225Z,100308.11
2023-05-14T18:45:31.882Z,100311.84
2023-05-14T18:47:58.558Z,100312.70
2023-05-14T18:50:25.099Z,100311.82
2023-05-14T18:52:51.653Z,100310.56
2023-05-14T18:55:18.290Z,100309.86
2023-05-14T18:57:44.934Z,100308.73
2023-05-14T19:00:14.332Z,100309.61
2023-05-14T19:02:41.405Z,100308.51
2023-05-14T19:05:08.349Z,100307.84
2023-05-14T19:07:35.063Z,100306.88
2023-05-14T19:10:01.689Z,100306.26
2023-05-14T19:12:29.489Z,100307.20
2023-05-14T19:14:56.093Z,100304.67
2023-05-14T19:17:22.778Z,100301.52
2023-05-14T19:19:49.418Z,100300.73
2023-05-14T19:22:18.585Z,100297.48
2023-05-14T19:24:45.114Z,100293.20
2023-05-14T19:27:16.039Z,100291.59
2023-05-14T19:29:43.661Z,100288.60
2023-05-14T19:32:10.542Z,100284.98
2023-05-14T19:34:37.149Z,100282.46
2023-05-14T19:37:04.662Z,100283.91
2023-05-14T19:39:31.520Z,100279.86
2023-05-14T19:41:59.398Z,100278.02
2023-05-14T19:44:26.024Z,100277.77
2023-05-14T19:46:52.720Z,100274.23
2023-05-14T19:49:19.367Z,100274.05
2023-05-14T19:51:46.007Z,100272.46
2023-05-14T19:54:12.648Z,100273.14
2023-05-14T19:56:39.248Z,100277.50
2023-05-14T19:59:05.961Z,100274.90
2023-05-14T20:01:34.334Z,100275.52
2023-05-14T20:04:01.236Z,100276.04
2023-05-14T20:06:28.058Z,100275.60
2023-05-14T20:08:55.333Z,100276.11
2023-05-14T20:11:21.936Z,100274.79
2023-05-14T20:13:49.707Z,100271.32
2023-05-14T20:16:16.884Z,100272.61
2023-05-14T20:18:44.303Z,100268.84
2023-05-14T20:21:11.044Z,100267.60
2023-05-14T20:23:37.760Z,100268.51
2023-05-14T20:26:04.618Z,100264.92
2023-05-14T20:28:31.471Z,100263.39
2023-05-14T20:31:02.928Z,100260.93
2023-05-14T20:33:30.752Z,100256.44
2023-05-14T20:35:57.490Z,100254.49
2023-05-14T20:38:25.659Z,100252.58
2023-05-14T20:40:52.210Z,100252.85
2023-05-14T20:43:18.826Z,100250.70
2023-05-14T20:45:45.482Z,100248.05
2023-05-14T20:48:16.096Z,100244.36
2023-05-14T20:50:43.311Z,100238.20
2023-05-14T20:53:09.967Z,100239.54
2023-05-14T20:55:36.695Z,100235.95
2023-05-14T20:58:03.457Z,100232.61
2023-05-14T21:00:30.276Z,100231.30
2023-05-14T21:02:57.396Z,100225.91
2023-05-14T21:05:24.884Z,100224.80
2023-05-14T21:07:51.725Z,100219.54
2023-05-14T21:10:18.581Z,100216.86
2023-05-14T21:12:45.290Z,100217.23
2023-05-14T21:15:11.989Z,100211.77
2023-05-14T21:17:38.700Z,100210.67
2023-05-14T21:20:06.343Z,100207.58
2023-05-14T21:22:33.111Z,100202.20
2023-05-14T21:24:59.728Z,100201.36
2023-05-14T21:27:26.713Z,100198.65
2023-05-14T21:29:53.432Z,100196.66
2023-05-14T21:32:22.128Z,100199.21
2023-05-14T21:34:49.240Z,100197.85
2023-05-14T21:37:15.936Z,100198.44
2023-05-14T21:39:42.446Z,100197.74
2023-05-14T21:42:09.629Z,100195.23
2023-05-14T21:44:36.303Z,100195.95
2023-05-14T21:47:03.852Z,100192.10
2023-05-14T21:49:30.605Z,100191.24
2023-05-14T21:51:57.354Z,100186.94
2023-05-14T21:54:24.090Z,100186.34
2023-05-14T21:56:50.946Z,100183.14
2023-05-14T21:59:17.629Z,100186.09
2023-05-14T22:04:13.890Z,100178.98
2023-05-14T22:06:40.895Z,100177.88
2023-05-14T22:09:10.633Z,100178.35
2023-05-14T22:11:37.392Z,100175.88
2023-05-14T22:14:03.971Z,100173.64
2023-05-14T22:16:30.723Z,100173.20
2023-05-14T22:18:57.421Z,100169.33
2023-05-14T22:21:24.073Z,100167.00
2023-05-14T22:23:50.728Z,100166.81
2023-05-14T22:26:17.355Z,100165.45
2023-05-14T22:28:43.903Z,100164.47
2023-05-14T22:31:10.710Z,100161.23
2023-05-14T22:33:37.387Z,100162.34
2023-05-14T22:36:06.894Z,100159.77
2023-05-14T22:38:34.074Z,100156.56
2023-05-14T22:41:00.642Z,100151.05
2023-05-14T22:43:27.225Z,100144.36
2023-05-14T22:45:53.803Z,100141.23
2023-05-14T22:48:20.293Z,100138.86
2023-05-14T22:50:46.774Z,100135.80
2023-05-14T22:53:13.514Z,100137.95
2023-05-14T22:55:40.107Z,100131.54
2023-05-14T22:58:07.055Z,100126.05
2023-05-14T23:00:33.608Z,100126.85
2023-05-14T23:03:00.332Z,100124.89
2023-05-14T23:05:27.235Z,100117.22
2023-05-14T23:07:55.320Z,100116.31
2023-05-14T23:10:21.961Z,100113.66
2023-05-14T23:12:48.479Z,100110.68
2023-05-14T23:15:15.240Z,100106.08
2023-05-14T23:17:42.004Z,100104.70
2023-05-14T23:20:12.595Z,100101.38
2023-05-14T23:22:40.143Z,100097.91
2023-05-14T23:25:07.700Z,100098.46
2023-05-14T23:27:34.932Z,100094.61
2023-05-14T23:30:03.086Z,100088.24
2023-05-14T23:32:29.846Z,100082.10
2023-05-14T23:34:56.368Z,100078.61
2023-05-14T23:37:23.203Z,100071.72
2023-05-14T23:39:50.105Z,100068.94
2023-05-14T23:42:16.669Z,100065.39
2023-05-14T23:44:43.363Z,100065.73
2023-05-14T23:47:10.148Z,100065.61
2023-05-14T23:49:36.857Z,100062.88
2023-05-14T23:52:03.546Z,100059.95
2023-05-14T23:54:30.179Z,100055.77
2023-05-14T23:56:56.745Z,100057.09
2023-05-14T23:59:23.270Z,100050.56
